Time;durP1;ratioP1;P1;durP2;ratioP2;P2;SDS_P1;SDS_P2;PMS_P1;PMS_P2;Temp;Humidity;BMP_temperature;BMP_pressure;BME280_temperature;BME280_humidity;BME280_pressure;Samples;Min_cycle;Max_cycle;Signal;HPM_P1;HPM_P2
2021/09/24 00:01:21;;;;;;;6.05;5.18;;;16.00;73.60;;;;;;6250317;28;20433;-78
2021/09/24 00:04:23;;;;;;;6.38;5.25;;;15.90;74.00;;;;;;6253174;28;20430;-78
2021/09/24 00:07:24;;;;;;;6.57;5.68;;;15.80;74.20;;;;;;6238489;28;20518;-79
2021/09/24 00:10:26;;;;;;;5.68;5.13;;;15.70;74.80;;;;;;6225425;28;20452;-78
2021/09/24 00:13:29;;;;;;;8.05;5.55;;;15.60;75.10;;;;;;6226154;28;20544;-77
2021/09/24 00:16:31;;;;;;;6.72;5.60;;;15.50;75.30;;;;;;6223495;28;20519;-79
2021/09/24 00:19:33;;;;;;;7.95;5.60;;;15.30;75.70;;;;;;6224336;28;20471;-78
2021/09/24 00:22:36;;;;;;;6.57;5.57;;;15.30;76.90;;;;;;6224682;28;20905;-78
2021/09/24 00:25:38;;;;;;;6.85;5.70;;;15.20;76.30;;;;;;6224736;28;20484;-78
2021/09/24 00:28:41;;;;;;;10.48;5.18;;;15.00;76.90;;;;;;6224237;28;20530;-78
2021/09/24 00:31:43;;;;;;;5.70;5.00;;;15.00;76.70;;;;;;6224875;28;20443;-78
2021/09/24 00:34:45;;;;;;;5.88;5.28;;;14.90;77.00;;;;;;6225178;28;20506;-79
2021/09/24 00:37:46;;;;;;;8.20;5.57;;;14.90;76.80;;;;;;6227135;28;21032;-78
2021/09/24 00:40:48;;;;;;;6.18;5.57;;;14.90;77.00;;;;;;6227902;28;20456;-78
2021/09/24 00:43:52;;;;;;;6.88;6.18;;;14.80;77.00;;;;;;6227418;28;20543;-79
2021/09/24 00:46:54;;;;;;;8.95;6.57;;;14.80;77.20;;;;;;6227190;28;20941;-79
2021/09/24 00:49:56;;;;;;;6.47;5.47;;;14.70;76.40;;;;;;6226212;28;20424;-78
2021/09/24 00:52:59;;;;;;;6.45;5.65;;;14.70;76.40;;;;;;6224096;28;20459;-78
2021/09/24 00:56:01;;;;;;;6.43;5.63;;;14.60;77.10;;;;;;6225691;28;20514;-78
2021/09/24 00:59:04;;;;;;;6.95;6.25;;;14.60;77.40;;;;;;6225470;28;20420;-77
2021/09/24 01:02:06;;;;;;;6.03;5.45;;;14.50;77.50;;;;;;6225139;28;20506;-77
2021/09/24 01:05:09;;;;;;;6.45;5.82;;;14.50;77.60;;;;;;6225343;28;20512;-77
2021/09/24 01:08:14;;;;;;;7.15;6.45;;;14.40;78.00;;;;;;6226688;28;20440;-79
2021/09/24 01:11:16;;;;;;;6.07;5.47;;;14.30;78.00;;;;;;6225698;28;20532;-78
2021/09/24 01:14:19;;;;;;;6.97;5.95;;;14.30;77.50;;;;;;6225488;28;20424;-78
2021/09/24 01:17:21;;;;;;;6.90;6.20;;;14.20;78.10;;;;;;6225826;28;20416;-79
2021/09/24 01:20:23;;;;;;;7.50;6.70;;;14.20;78.20;;;;;;6226817;28;20508;-79
2021/09/24 01:23:27;;;;;;;10.85;7.10;;;14.20;78.40;;;;;;6226524;28;20417;-79
2021/09/24 01:26:29;;;;;;;8.25;6.07;;;14.20;78.50;;;;;;6228169;28;20472;-78
2021/09/24 01:29:30;;;;;;;7.80;7.00;;;14.10;78.50;;;;;;6236965;28;20476;-77
2021/09/24 01:32:32;;;;;;;6.75;6.03;;;14.10;78.70;;;;;;6231451;28;20424;-79
2021/09/24 01:35:34;;;;;;;7.13;6.43;;;14.10;78.90;;;;;;6225205;28;20490;-79
2021/09/24 01:38:38;;;;;;;8.07;5.73;;;14.10;78.90;;;;;;6224817;28;20500;-79
2021/09/24 01:41:42;;;;;;;6.95;6.10;;;14.10;79.70;;;;;;6225124;28;20988;-79
2021/09/24 01:44:44;;;;;;;8.88;6.85;;;14.10;79.50;;;;;;6225666;28;20551;-78
2021/09/24 01:47:45;;;;;;;7.85;6.38;;;14.10;79.20;;;;;;6225244;28;20510;-79
2021/09/24 01:50:47;;;;;;;9.35;6.30;;;14.00;78.80;;;;;;6225285;28;21048;-79
2021/09/24 01:53:50;;;;;;;6.15;5.55;;;13.90;78.70;;;;;;6224989;28;20417;-77
2021/09/24 01:56:52;;;;;;;7.40;6.20;;;13.80;78.50;;;;;;6226272;28;20436;-79
2021/09/24 01:59:54;;;;;;;7.22;6.53;;;13.70;78.60;;;;;;6226070;28;20476;-79
2021/09/24 02:02:56;;;;;;;6.90;6.20;;;13.60;79.20;;;;;;6228320;28;20547;-78
2021/09/24 02:05:58;;;;;;;9.20;6.27;;;13.60;79.30;;;;;;6231150;28;20598;-78
2021/09/24 02:09:01;;;;;;;7.50;5.63;;;13.60;80.20;;;;;;6230927;28;20490;-79
2021/09/24 02:12:04;;;;;;;8.40;6.40;;;13.50;79.70;;;;;;6230878;28;20522;-79
2021/09/24 02:15:06;;;;;;;11.18;8.18;;;13.40;80.20;;;;;;6230924;28;20499;-79
2021/09/24 02:18:08;;;;;;;8.25;7.28;;;13.40;80.80;;;;;;6230604;28;20679;-79
2021/09/24 02:21:11;;;;;;;10.45;8.45;;;13.40;82.00;;;;;;6229713;28;20420;-78
2021/09/24 02:24:14;;;;;;;11.70;9.00;;;13.40;82.80;;;;;;6231096;28;20918;-78
2021/09/24 02:27:16;;;;;;;10.97;7.97;;;13.40;83.10;;;;;;6230314;28;20785;-79
2021/09/24 02:30:18;;;;;;;8.63;7.53;;;13.50;82.20;;;;;;6230293;28;20417;-78
2021/09/24 02:33:19;;;;;;;8.63;7.78;;;13.60;82.30;;;;;;6230427;28;20469;-79
2021/09/24 02:36:21;;;;;;;8.47;7.43;;;13.60;82.10;;;;;;6230622;28;20508;-77
2021/09/24 02:39:24;;;;;;;9.80;8.57;;;13.60;82.70;;;;;;6231183;28;20495;-78
2021/09/24 02:42:26;;;;;;;9.23;7.65;;;13.70;82.00;;;;;;6231192;28;20484;-77
2021/09/24 02:45:28;;;;;;;9.17;8.27;;;13.70;81.80;;;;;;6230565;28;20462;-78
2021/09/24 02:48:30;;;;;;;8.70;7.32;;;13.70;81.80;;;;;;6230732;28;20546;-78
2021/09/24 02:51:32;;;;;;;13.00;9.00;;;13.80;81.30;;;;;;6229639;28;20432;-78
2021/09/24 02:54:35;;;;;;;8.77;7.88;;;13.80;81.50;;;;;;6228021;28;20635;-78
2021/09/24 02:57:38;;;;;;;8.47;7.63;;;13.80;81.70;;;;;;6228313;28;20894;-79
2021/09/24 03:00:40;;;;;;;7.65;6.82;;;13.80;81.30;;;;;;6229513;28;20446;-78
2021/09/24 03:03:42;;;;;;;10.07;8.65;;;13.80;79.90;;;;;;6229460;28;20996;-78
2021/09/24 03:06:43;;;;;;;9.85;7.65;;;13.70;80.70;;;;;;6228550;28;20443;-78
2021/09/24 03:09:47;;;;;;;8.83;7.10;;;13.70;80.60;;;;;;6228333;28;20421;-78
2021/09/24 03:12:48;;;;;;;7.60;6.80;;;13.60;79.90;;;;;;6224910;28;20444;-79
2021/09/24 03:15:50;;;;;;;8.02;7.00;;;13.60;80.00;;;;;;6227078;28;20436;-79
2021/09/24 03:18:52;;;;;;;7.67;6.47;;;13.50;79.50;;;;;;6226510;28;20502;-78
2021/09/24 03:21:54;;;;;;;8.82;7.13;;;13.50;79.50;;;;;;6227282;28;20444;-78
2021/09/24 03:24:57;;;;;;;9.27;6.57;;;13.40;79.90;;;;;;6226961;28;20526;-79
2021/09/24 03:27:59;;;;;;;8.60;7.15;;;13.30;80.00;;;;;;6227047;28;20522;-77
2021/09/24 03:31:01;;;;;;;9.35;7.68;;;13.30;80.00;;;;;;6226234;28;20480;-79
2021/09/24 03:34:03;;;;;;;7.80;6.70;;;13.20;80.70;;;;;;6226760;28;20781;-79
2021/09/24 03:37:05;;;;;;;9.73;7.90;;;13.20;80.20;;;;;;6226188;28;20444;-78
2021/09/24 03:40:10;;;;;;;10.80;9.02;;;13.20;80.30;;;;;;6225765;28;20543;-78
2021/09/24 03:43:11;;;;;;;11.70;9.68;;;13.30;81.20;;;;;;6225329;28;20441;-79
2021/09/24 03:46:13;;;;;;;10.68;8.60;;;13.30;81.70;;;;;;6224889;28;20852;-79
2021/09/24 03:49:15;;;;;;;13.82;8.82;;;13.30;81.80;;;;;;6225323;28;21032;-79
2021/09/24 03:52:18;;;;;;;10.65;8.88;;;13.40;82.30;;;;;;6227347;28;20434;-80
2021/09/24 03:55:21;;;;;;;11.40;10.20;;;13.40;81.70;;;;;;6227184;28;20559;-79
2021/09/24 03:58:24;;;;;;;14.80;10.75;;;13.40;83.00;;;;;;6227664;28;20419;-79
2021/09/24 04:01:25;;;;;;;14.00;11.10;;;13.40;83.40;;;;;;6227128;28;20432;-79
2021/09/24 04:04:27;;;;;;;11.73;9.80;;;13.50;83.50;;;;;;6230512;28;20908;-80
2021/09/24 04:07:29;;;;;;;13.07;10.87;;;13.60;83.20;;;;;;6229512;28;20413;-79
2021/09/24 04:10:32;;;;;;;12.80;11.10;;;13.60;83.40;;;;;;6229344;28;20445;-79
2021/09/24 04:13:34;;;;;;;13.63;10.77;;;13.60;83.70;;;;;;6229028;28;20413;-80
2021/09/24 04:16:36;;;;;;;12.57;11.00;;;13.60;83.30;;;;;;6229137;28;20467;-79
2021/09/24 04:19:38;;;;;;;11.20;9.85;;;13.60;83.30;;;;;;6254462;28;20419;-78
2021/09/24 04:22:40;;;;;;;12.65;11.30;;;13.60;83.20;;;;;;6235885;28;20973;-78
2021/09/24 04:25:44;;;;;;;12.63;11.32;;;13.70;83.10;;;;;;6227984;28;20909;-78
2021/09/24 04:28:46;;;;;;;16.07;11.33;;;13.70;83.30;;;;;;6227978;28;20605;-79
2021/09/24 04:31:48;;;;;;;11.65;10.25;;;13.70;83.30;;;;;;6227027;28;20794;-78
2021/09/24 04:34:50;;;;;;;12.45;10.73;;;13.80;83.40;;;;;;6226245;28;20504;-78
2021/09/24 04:37:52;;;;;;;11.43;9.88;;;13.80;83.50;;;;;;6227172;28;20416;-77
2021/09/24 04:40:55;;;;;;;11.25;9.95;;;13.80;83.40;;;;;;6226733;28;21021;-77
2021/09/24 04:43:57;;;;;;;14.18;11.55;;;13.80;83.40;;;;;;6228356;28;20492;-78
2021/09/24 04:46:59;;;;;;;12.40;11.10;;;13.80;83.40;;;;;;6221603;28;20561;-77
2021/09/24 04:50:01;;;;;;;12.70;11.13;;;13.80;83.40;;;;;;6221136;28;20417;-77
2021/09/24 04:53:03;;;;;;;15.25;11.73;;;13.80;83.40;;;;;;6222557;28;20544;-77
2021/09/24 04:56:07;;;;;;;12.20;11.00;;;13.80;83.50;;;;;;6223698;28;20432;-77
2021/09/24 04:59:09;;;;;;;12.43;11.23;;;13.80;83.40;;;;;;6221855;28;20416;-77
2021/09/24 05:02:11;;;;;;;12.68;11.35;;;13.90;83.40;;;;;;6223912;28;20432;-78
2021/09/24 05:05:13;;;;;;;11.30;10.20;;;13.90;83.50;;;;;;6227099;28;20491;-77
2021/09/24 05:08:15;;;;;;;11.10;9.98;;;13.80;83.30;;;;;;6226478;28;20523;-77
2021/09/24 05:11:18;;;;;;;11.02;9.90;;;13.80;83.20;;;;;;6221343;28;20515;-77
2021/09/24 05:14:20;;;;;;;11.38;9.65;;;13.80;82.80;;;;;;6222227;28;20463;-78
2021/09/24 05:17:22;;;;;;;12.43;10.00;;;13.80;83.00;;;;;;6223016;28;20503;-77
2021/09/24 05:20:26;;;;;;;10.43;9.37;;;13.80;83.60;;;;;;6221871;28;20483;-77
2021/09/24 05:23:27;;;;;;;12.65;10.35;;;13.90;82.70;;;;;;6222723;28;20826;-76
2021/09/24 05:26:31;;;;;;;11.57;9.70;;;13.80;82.60;;;;;;6221950;28;20841;-78
2021/09/24 05:29:32;;;;;;;12.52;11.32;;;13.90;82.70;;;;;;6222023;28;20506;-78
2021/09/24 05:32:34;;;;;;;11.23;10.13;;;13.90;82.60;;;;;;6222013;28;20928;-77
2021/09/24 05:35:36;;;;;;;11.95;10.65;;;13.90;82.60;;;;;;6220245;28;20548;-77
2021/09/24 05:38:38;;;;;;;12.05;10.85;;;13.90;82.60;;;;;;6220242;28;20416;-77
2021/09/24 05:41:41;;;;;;;11.80;10.65;;;13.90;82.60;;;;;;6221614;28;20427;-78
2021/09/24 05:44:43;;;;;;;11.70;10.48;;;13.90;82.60;;;;;;6221752;28;20544;-77
2021/09/24 05:47:45;;;;;;;13.10;10.32;;;13.90;82.50;;;;;;6222236;28;20468;-77
2021/09/24 05:50:47;;;;;;;11.63;10.23;;;14.00;83.00;;;;;;6221316;28;20794;-77
2021/09/24 05:53:49;;;;;;;11.55;10.38;;;14.00;82.20;;;;;;6224517;28;20893;-77
2021/09/24 05:56:52;;;;;;;11.05;9.65;;;14.00;82.30;;;;;;6239521;23;20434;-77
2021/09/24 05:59:54;;;;;;;13.43;10.68;;;14.10;81.90;;;;;;6195761;28;20574;-78
2021/09/24 06:02:56;;;;;;;13.25;11.77;;;14.10;81.60;;;;;;6195493;28;20418;-78
2021/09/24 06:05:58;;;;;;;14.38;10.07;;;14.20;82.10;;;;;;6195570;28;20457;-78
2021/09/24 06:09:02;;;;;;;12.75;11.00;;;14.20;81.80;;;;;;6195256;28;20426;-78
2021/09/24 06:12:06;;;;;;;12.88;11.38;;;14.30;81.30;;;;;;6196054;28;20784;-78
2021/09/24 06:15:09;;;;;;;12.50;10.30;;;14.30;81.00;;;;;;6195779;28;20476;-78
2021/09/24 06:18:11;;;;;;;12.45;10.15;;;14.30;80.90;;;;;;6195616;28;20415;-78
2021/09/24 06:21:13;;;;;;;11.35;9.73;;;14.40;81.00;;;;;;6195332;28;20418;-77
2021/09/24 06:24:16;;;;;;;13.57;11.32;;;14.50;80.60;;;;;;6195956;28;20439;-77
2021/09/24 06:27:19;;;;;;;13.93;9.82;;;14.60;80.30;;;;;;6195167;28;20418;-75
2021/09/24 06:30:23;;;;;;;13.18;10.60;;;14.70;80.40;;;;;;6194684;28;20907;-75
2021/09/24 06:33:25;;;;;;;11.70;10.50;;;14.80;79.80;;;;;;6195020;28;20980;-75
2021/09/24 06:36:28;;;;;;;10.43;9.32;;;14.90;79.60;;;;;;6195356;28;20438;-75
2021/09/24 06:39:29;;;;;;;11.60;10.40;;;15.00;79.40;;;;;;6219032;28;20782;-76
2021/09/24 06:42:33;;;;;;;14.77;10.60;;;15.10;78.90;;;;;;6226645;28;20921;-77
2021/09/24 06:45:35;;;;;;;11.27;10.13;;;15.20;78.90;;;;;;6220612;28;20496;-78
2021/09/24 06:48:37;;;;;;;21.20;11.50;;;15.30;78.30;;;;;;6220594;28;20944;-76
2021/09/24 06:51:39;;;;;;;11.23;9.73;;;15.40;78.10;;;;;;6199235;28;20966;-76
2021/09/24 06:54:40;;;;;;;13.05;10.40;;;15.50;77.80;;;;;;6199611;28;20430;-76
2021/09/24 06:57:44;;;;;;;11.95;10.80;;;15.70;77.20;;;;;;6207724;28;20932;-76
2021/09/24 07:00:45;;;;;;;11.55;9.73;;;15.90;76.60;;;;;;6223344;28;20452;-76
2021/09/24 07:03:47;;;;;;;14.13;11.18;;;16.00;76.40;;;;;;6223838;28;20440;-76
2021/09/24 07:06:49;;;;;;;13.05;10.05;;;16.30;75.10;;;;;;6223486;28;20499;-76
2021/09/24 07:09:51;;;;;;;10.85;9.75;;;16.50;74.90;;;;;;6223369;28;20408;-76
2021/09/24 07:12:54;;;;;;;11.43;9.70;;;16.70;74.50;;;;;;6223245;28;20464;-76
2021/09/24 07:15:56;;;;;;;13.38;9.35;;;17.00;73.20;;;;;;6223524;28;20918;-77
2021/09/24 07:18:58;;;;;;;13.35;10.38;;;17.30;72.50;;;;;;6222944;28;20492;-76
2021/09/24 07:22:00;;;;;;;11.98;10.52;;;17.60;71.50;;;;;;6223172;28;20479;-77
2021/09/24 07:25:01;;;;;;;10.98;9.98;;;17.90;71.10;;;;;;6222969;28;20828;-76
2021/09/24 07:28:05;;;;;;;13.25;10.15;;;18.20;69.80;;;;;;6223219;28;20532;-76
2021/09/24 07:31:07;;;;;;;10.98;9.88;;;18.60;68.90;;;;;;6222433;28;20435;-76
2021/09/24 07:34:08;;;;;;;15.73;10.30;;;18.80;67.50;;;;;;6222872;28;20413;-76
2021/09/24 07:37:10;;;;;;;11.02;9.95;;;19.00;66.80;;;;;;6222675;28;20421;-76
2021/09/24 07:40:14;;;;;;;16.00;10.83;;;19.10;66.70;;;;;;6223213;28;20464;-77
2021/09/24 07:43:17;;;;;;;17.08;11.52;;;19.20;66.70;;;;;;6222531;28;20424;-77
2021/09/24 07:46:20;;;;;;;19.05;11.50;;;19.50;65.80;;;;;;6222248;28;20500;-76
2021/09/24 07:49:22;;;;;;;12.90;10.33;;;19.60;65.40;;;;;;6222328;28;20477;-77
2021/09/24 07:52:24;;;;;;;15.75;11.27;;;19.80;64.60;;;;;;6222640;28;20525;-76
2021/09/24 07:55:26;;;;;;;11.93;10.60;;;20.00;64.50;;;;;;6232840;28;20793;-76
2021/09/24 07:58:29;;;;;;;13.10;10.52;;;20.20;63.70;;;;;;6249840;28;20509;-76
2021/09/24 08:01:31;;;;;;;13.30;11.38;;;20.30;62.90;;;;;;6247292;28;20786;-77
2021/09/24 08:04:32;;;;;;;14.32;10.32;;;20.50;62.60;;;;;;6247509;28;20470;-77
2021/09/24 08:07:34;;;;;;;11.88;10.30;;;20.50;62.00;;;;;;6246762;28;20545;-77
2021/09/24 08:10:36;;;;;;;10.95;9.85;;;20.40;62.10;;;;;;6247450;28;20987;-78
2021/09/24 08:13:41;;;;;;;12.57;10.87;;;20.30;62.70;;;;;;6247283;28;20617;-77
2021/09/24 08:16:43;;;;;;;10.85;9.75;;;20.40;62.50;;;;;;6246380;28;20434;-77
2021/09/24 08:19:45;;;;;;;11.57;9.65;;;20.50;61.90;;;;;;6246680;28;20965;-77
2021/09/24 08:22:46;;;;;;;11.38;10.30;;;20.60;61.90;;;;;;6246749;28;20443;-77
2021/09/24 08:25:49;;;;;;;12.37;9.50;;;20.70;61.20;;;;;;6237957;28;20423;-77
2021/09/24 08:28:52;;;;;;;11.32;9.75;;;20.80;61.10;;;;;;6246418;28;20434;-78
2021/09/24 08:31:54;;;;;;;12.32;10.05;;;20.90;60.90;;;;;;6247398;28;20439;-77
2021/09/24 08:34:56;;;;;;;11.93;9.15;;;21.00;61.40;;;;;;6246858;28;20431;-78
2021/09/24 08:37:58;;;;;;;9.55;8.55;;;21.30;60.70;;;;;;6247122;28;20422;-78
2021/09/24 08:41:00;;;;;;;11.40;10.25;;;21.40;60.10;;;;;;6245903;28;20492;-78
2021/09/24 08:44:03;;;;;;;8.88;7.95;;;21.50;58.90;;;;;;6246985;28;20543;-78
2021/09/24 08:47:05;;;;;;;10.40;8.85;;;21.50;60.10;;;;;;6247125;28;20900;-77
2021/09/24 08:50:08;;;;;;;9.82;8.88;;;21.80;59.00;;;;;;6246038;28;20407;-77
2021/09/24 08:53:12;;;;;;;10.32;8.73;;;21.80;58.10;;;;;;6245359;28;20423;-77
2021/09/24 08:56:14;;;;;;;12.45;9.23;;;22.00;58.20;;;;;;6237616;28;20446;-77
2021/09/24 08:59:18;;;;;;;11.03;8.20;;;22.10;57.50;;;;;;6244706;28;20457;-77
2021/09/24 09:02:20;;;;;;;10.07;8.50;;;22.20;57.60;;;;;;6245715;28;20462;-77
2021/09/24 09:05:22;;;;;;;9.77;8.85;;;22.40;57.00;;;;;;6245207;28;21074;-76
2021/09/24 09:08:27;;;;;;;10.60;8.27;;;22.50;56.50;;;;;;6245311;28;20441;-77
2021/09/24 09:11:30;;;;;;;10.07;8.85;;;22.40;56.90;;;;;;6243524;28;20928;-77
2021/09/24 09:14:33;;;;;;;10.37;8.77;;;22.50;56.40;;;;;;6244853;28;20542;-77
2021/09/24 09:17:38;;;;;;;10.77;9.32;;;22.70;55.70;;;;;;6245101;28;20415;-77
2021/09/24 09:20:39;;;;;;;11.00;9.27;;;22.70;55.20;;;;;;6244505;28;20581;-76
2021/09/24 09:23:45;;;;;;;10.45;9.45;;;22.60;56.20;;;;;;6245108;28;20517;-77
2021/09/24 09:26:47;;;;;;;9.53;8.53;;;22.40;56.00;;;;;;6236609;28;20509;-77
2021/09/24 09:30:02;;;;;;;8.13;7.35;;;22.40;56.30;;;;;;6244522;28;20468;-77
2021/09/24 09:33:07;;;;;;;8.48;7.13;;;22.50;56.20;;;;;;6244660;28;20546;-77
2021/09/24 09:36:10;;;;;;;9.98;7.63;;;22.80;55.70;;;;;;6245039;28;20431;-77
2021/09/24 09:39:14;;;;;;;8.40;7.47;;;23.20;54.90;;;;;;6244395;28;20978;-77
2021/09/24 09:42:16;;;;;;;8.30;7.00;;;23.40;53.00;;;;;;6244757;28;20470;-77
2021/09/24 09:45:20;;;;;;;14.82;7.65;;;23.60;52.10;;;;;;6244879;28;20498;-77
2021/09/24 09:48:21;;;;;;;7.22;6.50;;;23.80;51.40;;;;;;6244962;28;20513;-77
2021/09/24 09:51:23;;;;;;;9.25;6.38;;;23.90;51.60;;;;;;6243968;28;20419;-77
2021/09/24 09:54:28;;;;;;;6.97;6.38;;;24.10;51.40;;;;;;6242256;28;20443;-76
2021/09/24 09:57:34;;;;;;;6.38;5.78;;;24.20;51.40;;;;;;6238426;28;20419;-77
2021/09/24 10:00:56;;;;;;;9.33;5.93;;;24.50;50.80;;;;;;6244829;28;20441;-77
2021/09/24 10:03:59;;;;;;;6.72;5.38;;;24.70;48.80;;;;;;6220462;28;20535;-77
2021/09/24 10:07:11;;;;;;;7.75;5.50;;;24.80;48.00;;;;;;6239289;28;20431;-77
2021/09/24 10:10:16;;;;;;;7.32;5.60;;;24.90;47.80;;;;;;6244087;28;20509;-77
2021/09/24 10:13:18;;;;;;;6.38;5.38;;;25.10;48.10;;;;;;6244205;28;20458;-77
2021/09/24 10:16:23;;;;;;;7.73;5.13;;;25.10;47.20;;;;;;6244644;28;20516;-77
2021/09/24 10:19:25;;;;;;;6.90;4.68;;;25.40;46.00;;;;;;6244147;28;20411;-77
2021/09/24 10:22:27;;;;;;;5.72;4.63;;;25.70;45.90;;;;;;6245471;28;20418;-77
2021/09/24 10:25:29;;;;;;;6.10;4.90;;;25.90;44.40;;;;;;6240841;28;20478;-77
2021/09/24 10:28:35;;;;;;;6.90;4.80;;;26.10;43.60;;;;;;6249226;28;20463;-78
2021/09/24 10:31:41;;;;;;;5.13;4.32;;;26.00;44.10;;;;;;6249360;28;20422;-78
2021/09/24 10:34:55;;;;;;;7.75;5.18;;;26.30;44.60;;;;;;6229130;28;20580;-78
2021/09/24 10:38:08;;;;;;;4.70;4.30;;;26.50;43.30;;;;;;6221455;28;20507;-78
2021/09/24 10:41:14;;;;;;;7.38;5.07;;;26.80;42.50;;;;;;6223845;28;20444;-79
2021/09/24 10:44:15;;;;;;;6.45;5.88;;;27.10;43.10;;;;;;6226492;28;20436;-79
2021/09/24 10:47:46;;;;;;;5.82;4.85;;;27.20;41.70;;;;;;6224413;28;20421;-79
2021/09/24 10:50:55;;;;;;;6.43;5.20;;;26.80;43.20;;;;;;6224366;28;20511;-79
2021/09/24 10:54:15;;;;;;;5.80;4.97;;;26.90;43.10;;;;;;6224599;28;20511;-79
2021/09/24 10:57:17;;;;;;;5.23;4.10;;;27.20;42.00;;;;;;6201102;28;20489;-79
2021/09/24 11:00:26;;;;;;;4.47;4.07;;;27.40;41.30;;;;;;6200424;28;20574;-79
2021/09/24 11:03:30;;;;;;;9.77;4.07;;;27.60;40.20;;;;;;6200769;28;20848;-79
2021/09/24 11:06:37;;;;;;;6.78;4.18;;;27.50;40.90;;;;;;6199695;28;20509;-79
2021/09/24 11:09:52;;;;;;;6.03;4.18;;;27.60;39.90;;;;;;6200378;28;20507;-79
2021/09/24 11:13:08;;;;;;;4.40;3.65;;;27.70;40.30;;;;;;6199877;28;20438;-79
2021/09/24 11:16:12;;;;;;;6.80;4.13;;;27.90;40.10;;;;;;6200874;28;20445;-79
2021/09/24 11:19:41;;;;;;;9.25;4.40;;;27.90;39.90;;;;;;6199209;28;20422;-79
2021/09/24 11:22:43;;;;;;;8.35;4.13;;;28.00;39.30;;;;;;6198815;28;20501;-79
2021/09/24 11:26:09;;;;;;;5.00;4.50;;;28.30;39.90;;;;;;6211886;28;20425;-79
2021/09/24 11:29:13;;;;;;;7.75;4.35;;;28.50;38.30;;;;;;6223055;28;20498;-79
2021/09/24 11:32:15;;;;;;;6.45;4.68;;;28.70;39.50;;;;;;6224038;28;20912;-79
2021/09/24 11:35:21;;;;;;;5.55;4.35;;;28.90;38.70;;;;;;6219213;28;20490;-79
2021/09/24 11:38:23;;;;;;;7.57;4.80;;;28.90;37.80;;;;;;6223018;28;20425;-79
2021/09/24 11:41:28;;;;;;;5.18;4.68;;;29.00;38.50;;;;;;6223384;28;20438;-79
2021/09/24 11:44:30;;;;;;;6.53;4.88;;;29.10;37.80;;;;;;6225942;28;20432;-79
2021/09/24 11:47:33;;;;;;;5.20;4.38;;;29.10;37.90;;;;;;6224826;28;20425;-79
2021/09/24 11:50:38;;;;;;;6.17;4.77;;;28.70;38.80;;;;;;6223724;28;20790;-78
2021/09/24 11:53:51;;;;;;;6.85;4.82;;;28.60;38.80;;;;;;6225569;28;20424;-79
2021/09/24 11:56:54;;;;;;;5.55;4.95;;;28.50;38.90;;;;;;6244501;23;20441;-76
2021/09/24 11:59:59;;;;;;;5.85;4.68;;;28.60;38.50;;;;;;6270176;28;21034;-76
2021/09/24 12:03:13;;;;;;;6.57;5.43;;;28.90;38.40;;;;;;6270702;28;20414;-77
2021/09/24 12:06:16;;;;;;;8.93;4.70;;;28.80;38.30;;;;;;6269827;28;20479;-76
2021/09/24 12:09:22;;;;;;;6.05;5.25;;;28.60;39.90;;;;;;6248292;28;20425;-76
2021/09/24 12:12:23;;;;;;;7.43;4.65;;;28.80;39.10;;;;;;6246077;28;20490;-76
2021/09/24 12:15:25;;;;;;;5.50;4.75;;;29.00;38.70;;;;;;6245480;28;20449;-77
2021/09/24 12:18:47;;;;;;;7.72;5.25;;;29.10;38.00;;;;;;6245264;28;20488;-77
2021/09/24 12:21:54;;;;;;;8.47;5.67;;;29.20;38.00;;;;;;6245014;28;20415;-77
2021/09/24 12:24:55;;;;;;;6.67;5.20;;;29.20;38.40;;;;;;6238321;28;20921;-77
2021/09/24 12:28:08;;;;;;;7.25;4.63;;;29.30;37.80;;;;;;6243371;28;20529;-76
2021/09/24 12:31:30;;;;;;;7.38;4.88;;;29.40;37.90;;;;;;6245065;28;20510;-77
2021/09/24 12:34:42;;;;;;;7.00;4.47;;;29.40;38.70;;;;;;6244743;28;20414;-77
2021/09/24 12:37:46;;;;;;;6.30;4.90;;;29.40;38.00;;;;;;6240110;28;20796;-76
2021/09/24 12:40:48;;;;;;;7.70;5.03;;;29.40;37.80;;;;;;6241162;28;20513;-77
2021/09/24 12:43:50;;;;;;;6.03;5.43;;;29.50;37.90;;;;;;6236538;28;20525;-77
2021/09/24 12:46:56;;;;;;;6.30;4.85;;;29.60;37.40;;;;;;6244229;28;20493;-76
2021/09/24 12:50:00;;;;;;;5.68;5.07;;;29.60;38.20;;;;;;6244055;28;20427;-77
2021/09/24 12:53:04;;;;;;;6.15;4.47;;;29.70;38.20;;;;;;6245420;28;21189;-76
2021/09/24 12:56:06;;;;;;;5.15;4.30;;;29.90;36.40;;;;;;6236631;28;20441;-77
2021/09/24 12:59:08;;;;;;;5.45;3.90;;;29.90;36.20;;;;;;6244585;28;20450;-77
2021/09/24 13:02:14;;;;;;;5.30;4.35;;;30.00;37.30;;;;;;6245363;28;20435;-76
2021/09/24 13:05:20;;;;;;;9.07;5.03;;;30.00;36.50;;;;;;6244794;28;20461;-76
2021/09/24 13:08:23;;;;;;;8.02;4.80;;;30.00;36.80;;;;;;6244589;28;20431;-77
2021/09/24 13:11:27;;;;;;;8.07;4.78;;;30.10;36.70;;;;;;6243988;28;20447;-76
2021/09/24 13:14:29;;;;;;;8.95;4.43;;;30.30;36.70;;;;;;6243524;28;20903;-76
2021/09/24 13:17:33;;;;;;;6.70;4.75;;;30.40;36.70;;;;;;6242818;28;20422;-76
2021/09/24 13:20:35;;;;;;;5.50;4.90;;;30.40;35.80;;;;;;6243862;28;20567;-77
2021/09/24 13:23:40;;;;;;;6.55;5.20;;;30.40;36.30;;;;;;6219478;28;20579;-77
2021/09/24 13:26:41;;;;;;;5.63;5.03;;;30.50;34.70;;;;;;6225231;28;20477;-76
2021/09/24 13:29:46;;;;;;;6.15;4.45;;;30.30;35.20;;;;;;6219130;28;20421;-77
2021/09/24 13:32:48;;;;;;;10.07;4.07;;;30.10;36.40;;;;;;6219223;28;20429;-76
2021/09/24 13:35:49;;;;;;;8.40;5.03;;;30.10;36.40;;;;;;6219575;28;20437;-75
2021/09/24 13:38:52;;;;;;;9.02;5.40;;;30.20;36.30;;;;;;6238253;28;20428;-77
2021/09/24 13:41:55;;;;;;;9.13;4.88;;;30.20;35.90;;;;;;6243302;28;20419;-76
2021/09/24 13:44:56;;;;;;;6.10;4.43;;;30.20;35.90;;;;;;6244641;28;20872;-79
2021/09/24 13:47:58;;;;;;;7.05;4.78;;;30.10;35.40;;;;;;6245511;28;20490;-77
2021/09/24 13:51:00;;;;;;;8.50;4.63;;;30.00;35.40;;;;;;6244867;28;20423;-77
2021/09/24 13:54:03;;;;;;;5.20;4.70;;;30.00;35.80;;;;;;6245972;28;20803;-78
2021/09/24 13:57:05;;;;;;;6.50;4.00;;;30.00;35.60;;;;;;6236005;28;20468;-77
2021/09/24 14:00:09;;;;;;;6.55;4.13;;;30.00;35.80;;;;;;6248515;28;20524;-76
2021/09/24 14:03:10;;;;;;;6.10;4.47;;;30.00;35.50;;;;;;6250953;28;20453;-78
2021/09/24 14:06:12;;;;;;;7.13;4.22;;;29.90;36.00;;;;;;6249076;28;20485;-77
2021/09/24 14:09:15;;;;;;;4.93;4.43;;;29.90;36.10;;;;;;6247555;28;20464;-77
2021/09/24 14:12:17;;;;;;;4.55;4.03;;;30.10;35.70;;;;;;6248770;28;20458;-77
2021/09/24 14:15:19;;;;;;;6.97;4.30;;;30.10;35.90;;;;;;6248066;28;20502;-77
2021/09/24 14:18:22;;;;;;;5.50;3.95;;;30.20;36.00;;;;;;6247883;28;20912;-77
2021/09/24 14:21:24;;;;;;;4.50;3.90;;;30.20;35.60;;;;;;6247024;28;20616;-77
2021/09/24 14:24:27;;;;;;;4.00;3.70;;;30.10;36.50;;;;;;6245675;28;20908;-77
2021/09/24 14:27:30;;;;;;;5.88;3.88;;;30.20;36.60;;;;;;6242053;28;20473;-77
2021/09/24 14:30:32;;;;;;;5.45;4.38;;;30.30;35.00;;;;;;6247441;28;20415;-77
2021/09/24 14:33:34;;;;;;;5.10;4.60;;;30.20;35.60;;;;;;6247716;28;20426;-77
2021/09/24 14:36:36;;;;;;;6.07;4.55;;;30.00;35.40;;;;;;6247769;28;20453;-77
2021/09/24 14:39:39;;;;;;;5.03;4.40;;;29.90;35.60;;;;;;6242879;28;20489;-76
2021/09/24 14:42:41;;;;;;;11.63;4.70;;;30.00;35.70;;;;;;6247048;28;20407;-77
2021/09/24 14:45:43;;;;;;;5.97;4.25;;;30.00;35.80;;;;;;6247300;28;20756;-77
2021/09/24 14:48:45;;;;;;;5.45;4.95;;;29.90;36.00;;;;;;6247105;28;20501;-77
2021/09/24 14:51:47;;;;;;;4.60;4.00;;;30.00;36.00;;;;;;6248011;28;20577;-77
2021/09/24 14:54:50;;;;;;;6.30;4.75;;;30.10;35.90;;;;;;6242175;28;20499;-76
2021/09/24 14:57:52;;;;;;;4.77;4.27;;;30.10;36.30;;;;;;6245069;28;20477;-75
2021/09/24 15:00:54;;;;;;;4.78;4.10;;;30.10;35.90;;;;;;6246792;28;20958;-77
2021/09/24 15:03:55;;;;;;;5.13;4.60;;;30.00;35.90;;;;;;6247549;28;20489;-77
2021/09/24 15:06:57;;;;;;;6.63;5.18;;;29.80;36.10;;;;;;6245755;28;20946;-75
2021/09/24 15:10:01;;;;;;;5.47;4.97;;;29.50;36.30;;;;;;6230898;28;20463;-76
2021/09/24 15:13:02;;;;;;;6.55;4.75;;;29.20;36.90;;;;;;6222047;28;20556;-76
2021/09/24 15:16:05;;;;;;;7.30;4.43;;;28.90;38.10;;;;;;6222684;28;20949;-76
2021/09/24 15:19:07;;;;;;;6.40;4.88;;;28.60;37.90;;;;;;6221994;28;20420;-77
2021/09/24 15:22:09;;;;;;;6.05;4.75;;;28.30;38.20;;;;;;6222362;28;20545;-77
2021/09/24 15:25:12;;;;;;;5.53;4.40;;;27.90;39.20;;;;;;6239730;28;20538;-77
2021/09/24 15:28:14;;;;;;;5.88;4.45;;;27.70;39.90;;;;;;6223692;28;20934;-77
2021/09/24 15:31:16;;;;;;;5.20;4.67;;;27.40;40.80;;;;;;6221594;28;20554;-77
2021/09/24 15:34:18;;;;;;;5.50;5.00;;;27.00;41.20;;;;;;6222231;28;20801;-76
2021/09/24 15:37:20;;;;;;;6.57;5.63;;;26.60;43.00;;;;;;6222310;28;20568;-76
2021/09/24 15:40:24;;;;;;;5.65;5.07;;;26.20;43.80;;;;;;6237377;28;20431;-76
2021/09/24 15:43:26;;;;;;;7.47;5.07;;;25.90;44.60;;;;;;6245547;28;20411;-76
2021/09/24 15:46:28;;;;;;;6.60;4.63;;;25.70;45.30;;;;;;6245980;28;20415;-76